Time;durP1;ratioP1;P1;durP2;ratioP2;P2;SDS_P1;SDS_P2;PMS_P1;PMS_P2;Temp;Humidity;BMP_temperature;BMP_pressure;BME280_temperature;BME280_humidity;BME280_pressure;Samples;Min_cycle;Max_cycle;Signal;HPM_P1;HPM_P2
2022/03/25 00:00:36;;;;;;;58.20;26.35;;;;;;;;;;5069513;27;95525;-77
2022/03/25 00:03:05;;;;;;;55.35;27.10;;;;;;;;;;5070899;27;96866;-75
2022/03/25 00:05:32;;;;;;;43.80;25.48;;;;;;;;;;5070348;27;97388;-76
2022/03/25 00:07:58;;;;;;;51.58;25.48;;;;;;;;;;5070703;27;95593;-77
2022/03/25 00:10:25;;;;;;;48.70;25.85;;;;;;;;;;5067965;27;96934;-76
2022/03/25 00:12:51;;;;;;;54.00;26.40;;;;;;;;;;5074135;27;97300;-76
2022/03/25 00:15:18;;;;;;;49.72;26.65;;;;;;;;;;5069842;27;96842;-77
2022/03/25 00:17:44;;;;;;;52.22;27.55;;;;;;;;;;5070900;27;97311;-76
2022/03/25 00:20:11;;;;;;;53.47;26.60;;;;;;;;;;5058993;27;95391;-76
2022/03/25 00:22:37;;;;;;;58.63;28.52;;;;;;;;;;5050148;27;97150;-77
2022/03/25 00:25:05;;;;;;;50.28;26.92;;;;;;;;;;5049702;27;97580;-77
2022/03/25 00:27:35;;;;;;;57.92;27.70;;;;;;;;;;5050054;27;95570;-76
2022/03/25 00:30:03;;;;;;;53.08;28.33;;;;;;;;;;5059705;27;96851;-77
2022/03/25 00:32:29;;;;;;;58.80;29.80;;;;;;;;;;5073871;27;97281;-76
2022/03/25 00:34:55;;;;;;;57.30;29.00;;;;;;;;;;5070221;27;96734;-76
2022/03/25 00:37:23;;;;;;;50.63;28.83;;;;;;;;;;5070384;27;97088;-77
2022/03/25 00:39:49;;;;;;;57.45;29.73;;;;;;;;;;5069133;27;95547;-76
2022/03/25 00:42:16;;;;;;;64.28;30.63;;;;;;;;;;5069978;27;96736;-76
2022/03/25 00:44:43;;;;;;;62.45;29.63;;;;;;;;;;5070076;27;97421;-76
2022/03/25 00:47:09;;;;;;;62.35;31.77;;;;;;;;;;5070323;27;95282;-75
2022/03/25 00:49:36;;;;;;;60.58;31.17;;;;;;;;;;5069150;27;97221;-76
2022/03/25 00:52:03;;;;;;;55.13;30.20;;;;;;;;;;5049667;27;97287;-76
2022/03/25 00:54:29;;;;;;;63.60;32.08;;;;;;;;;;5053189;27;95474;-76
2022/03/25 00:56:56;;;;;;;62.83;31.98;;;;;;;;;;5049341;27;97334;-76
2022/03/25 00:59:22;;;;;;;66.00;32.42;;;;;;;;;;5049450;27;95625;-76
2022/03/25 01:01:48;;;;;;;71.05;33.78;;;;;;;;;;5068727;27;96921;-75
2022/03/25 01:04:16;;;;;;;66.93;33.13;;;;;;;;;;5068869;27;97264;-76
2022/03/25 01:06:43;;;;;;;72.95;34.50;;;;;;;;;;5069928;27;95509;-75
2022/03/25 01:09:09;;;;;;;70.55;33.72;;;;;;;;;;5069976;27;96894;-76
2022/03/25 01:11:36;;;;;;;58.30;30.23;;;;;;;;;;5066550;27;95932;-76
2022/03/25 01:14:03;;;;;;;61.35;30.50;;;;;;;;;;5069201;27;95332;-77
2022/03/25 01:16:30;;;;;;;53.92;25.92;;;;;;;;;;5073264;27;97311;-76
2022/03/25 01:18:56;;;;;;;46.10;24.73;;;;;;;;;;5069768;27;95853;-76
2022/03/25 01:21:23;;;;;;;54.10;26.10;;;;;;;;;;5059780;27;95884;-77
2022/03/25 01:23:49;;;;;;;61.90;26.85;;;;;;;;;;5048608;27;96285;-77
2022/03/25 01:26:15;;;;;;;51.20;26.42;;;;;;;;;;5049042;27;95691;-76
2022/03/25 01:28:42;;;;;;;63.63;28.40;;;;;;;;;;5049541;27;97088;-77
2022/03/25 01:31:09;;;;;;;56.75;27.30;;;;;;;;;;5055767;27;97314;-77
2022/03/25 01:33:37;;;;;;;51.30;25.65;;;;;;;;;;5069923;27;95154;-77
2022/03/25 01:36:04;;;;;;;52.85;26.45;;;;;;;;;;5063793;27;96834;-77
2022/03/25 01:38:30;;;;;;;50.92;26.70;;;;;;;;;;5051532;27;96221;-76
2022/03/25 01:40:57;;;;;;;57.50;27.27;;;;;;;;;;5049380;27;97276;-76
2022/03/25 01:43:25;;;;;;;57.50;28.15;;;;;;;;;;5049149;27;97329;-75
2022/03/25 01:45:52;;;;;;;62.00;30.05;;;;;;;;;;5048236;27;95237;-76
2022/03/25 01:48:20;;;;;;;61.70;32.25;;;;;;;;;;5051530;27;95975;-76
2022/03/25 01:50:47;;;;;;;74.75;38.17;;;;;;;;;;5048933;27;97440;-76
2022/03/25 01:53:14;;;;;;;77.38;40.30;;;;;;;;;;5048626;27;95334;-76
2022/03/25 01:55:56;;;;;;;77.05;37.78;;;;;;;;;;5048936;27;97454;-76
2022/03/25 01:58:23;;;;;;;81.03;37.60;;;;;;;;;;5067380;27;97948;-76
2022/03/25 02:00:49;;;;;;;87.47;40.47;;;;;;;;;;5072294;27;95440;-76
2022/03/25 02:03:16;;;;;;;83.20;41.60;;;;;;;;;;5069082;27;97666;-76
2022/03/25 02:05:43;;;;;;;78.05;38.00;;;;;;;;;;5068594;27;95769;-75
2022/03/25 02:08:10;;;;;;;78.78;39.67;;;;;;;;;;5051407;27;96774;-75
2022/03/25 02:10:37;;;;;;;87.60;40.28;;;;;;;;;;5047274;27;97386;-76
2022/03/25 02:13:04;;;;;;;85.30;41.40;;;;;;;;;;5048420;27;95343;-77
2022/03/25 02:15:40;;;;;;;81.00;41.88;;;;;;;;;;5048570;27;96898;-76
2022/03/25 02:18:15;;;;;;;92.25;43.67;;;;;;;;;;5049282;27;97457;-76
2022/03/25 02:20:42;;;;;;;83.13;41.17;;;;;;;;;;5048228;27;95366;-76
2022/03/25 02:23:09;;;;;;;91.50;42.70;;;;;;;;;;5051748;27;96841;-76
2022/03/25 02:25:36;;;;;;;86.25;41.15;;;;;;;;;;5048897;27;95731;-76
2022/03/25 02:28:04;;;;;;;84.10;41.15;;;;;;;;;;5062192;27;96843;-76
2022/03/25 02:30:31;;;;;;;85.13;40.50;;;;;;;;;;5072587;27;97600;-75
2022/03/25 02:33:01;;;;;;;76.72;38.35;;;;;;;;;;5058956;27;96321;-76
2022/03/25 02:35:40;;;;;;;84.50;42.78;;;;;;;;;;5051702;27;95627;-76
2022/03/25 02:38:06;;;;;;;81.03;40.50;;;;;;;;;;5051670;27;97482;-76
2022/03/25 02:40:34;;;;;;;87.72;44.08;;;;;;;;;;5052222;27;95625;-76
2022/03/25 02:43:00;;;;;;;96.35;46.25;;;;;;;;;;5054334;27;97033;-76
2022/03/25 02:45:27;;;;;;;93.93;45.58;;;;;;;;;;5051941;27;95342;-76
2022/03/25 02:47:53;;;;;;;95.60;46.28;;;;;;;;;;5056688;27;96959;-76
2022/03/25 02:50:19;;;;;;;93.57;48.50;;;;;;;;;;5071566;27;96500;-75
2022/03/25 02:52:46;;;;;;;97.13;47.47;;;;;;;;;;5072302;27;95313;-75
2022/03/25 02:55:12;;;;;;;99.63;48.90;;;;;;;;;;5071742;27;96764;-76
2022/03/25 02:57:38;;;;;;;99.90;48.22;;;;;;;;;;5070008;27;97276;-76
2022/03/25 03:00:08;;;;;;;99.82;49.47;;;;;;;;;;5051472;27;95398;-76
2022/03/25 03:02:38;;;;;;;95.00;48.00;;;;;;;;;;5052332;27;96905;-76
2022/03/25 03:05:07;;;;;;;105.90;50.03;;;;;;;;;;5053788;27;97657;-76
2022/03/25 03:07:35;;;;;;;99.50;50.35;;;;;;;;;;5052747;27;96774;-76
2022/03/25 03:10:05;;;;;;;99.93;48.63;;;;;;;;;;5071328;27;97322;-77
2022/03/25 03:12:32;;;;;;;97.75;47.17;;;;;;;;;;5070584;27;95385;-76
2022/03/25 03:14:59;;;;;;;89.90;44.90;;;;;;;;;;5051293;27;96928;-77
2022/03/25 03:17:25;;;;;;;95.05;44.67;;;;;;;;;;5050730;27;96934;-76
2022/03/25 03:19:52;;;;;;;85.20;43.45;;;;;;;;;;5067753;27;95314;-76
2022/03/25 03:22:18;;;;;;;106.60;50.70;;;;;;;;;;5071905;27;96835;-76
2022/03/25 03:24:45;;;;;;;107.10;50.28;;;;;;;;;;5071431;27;97214;-78
2022/03/25 03:27:11;;;;;;;110.80;50.85;;;;;;;;;;5074040;27;95723;-76
2022/03/25 03:29:38;;;;;;;112.53;52.60;;;;;;;;;;5065523;27;97458;-76
2022/03/25 03:32:05;;;;;;;107.57;51.88;;;;;;;;;;5071146;27;95467;-75
2022/03/25 03:34:31;;;;;;;109.30;53.22;;;;;;;;;;5071611;27;97024;-76
2022/03/25 03:36:58;;;;;;;112.90;50.92;;;;;;;;;;5070793;27;97299;-75
2022/03/25 03:39:24;;;;;;;109.22;52.35;;;;;;;;;;5058691;27;95527;-77
2022/03/25 03:41:51;;;;;;;109.15;51.78;;;;;;;;;;5050964;27;96752;-77
2022/03/25 03:44:18;;;;;;;106.15;51.08;;;;;;;;;;5050311;27;97309;-76
2022/03/25 03:46:44;;;;;;;110.05;52.63;;;;;;;;;;5051092;27;95462;-76
2022/03/25 03:49:11;;;;;;;110.30;49.97;;;;;;;;;;5053992;27;96992;-77
2022/03/25 03:51:37;;;;;;;108.40;49.95;;;;;;;;;;5050476;27;95912;-76
2022/03/25 03:54:05;;;;;;;115.13;52.53;;;;;;;;;;5050759;27;96876;-76
2022/03/25 03:56:31;;;;;;;98.82;48.75;;;;;;;;;;5050839;27;97564;-75
2022/03/25 03:58:57;;;;;;;91.85;44.58;;;;;;;;;;5053102;27;95876;-76
2022/03/25 04:01:24;;;;;;;89.22;42.20;;;;;;;;;;5071244;27;97009;-76
2022/03/25 04:03:50;;;;;;;83.18;40.55;;;;;;;;;;5070434;27;96152;-76
2022/03/25 04:06:17;;;;;;;85.53;42.15;;;;;;;;;;5070233;27;95299;-77
2022/03/25 04:08:43;;;;;;;89.95;42.22;;;;;;;;;;5069780;27;96595;-76
2022/03/25 04:11:09;;;;;;;90.88;43.80;;;;;;;;;;5053578;27;97321;-76
2022/03/25 04:13:36;;;;;;;91.70;43.63;;;;;;;;;;5050028;27;96638;-76
2022/03/25 04:16:03;;;;;;;93.97;43.20;;;;;;;;;;5050186;27;97746;-76
2022/03/25 04:18:29;;;;;;;85.18;40.45;;;;;;;;;;5050768;27;95156;-76
2022/03/25 04:20:56;;;;;;;85.15;41.63;;;;;;;;;;5063780;27;97323;-75
2022/03/25 04:23:22;;;;;;;78.68;40.50;;;;;;;;;;5070563;27;97301;-75
2022/03/25 04:25:49;;;;;;;82.40;41.88;;;;;;;;;;5070988;27;95360;-76
2022/03/25 04:28:15;;;;;;;80.80;40.60;;;;;;;;;;5058014;27;95560;-76
2022/03/25 04:30:41;;;;;;;90.03;41.35;;;;;;;;;;5061742;27;97213;-76
2022/03/25 04:33:07;;;;;;;94.00;43.13;;;;;;;;;;5072406;27;95220;-75
2022/03/25 04:35:35;;;;;;;86.20;41.95;;;;;;;;;;5065972;27;97485;-76
2022/03/25 04:38:02;;;;;;;86.93;41.13;;;;;;;;;;5050247;27;95898;-76
2022/03/25 04:40:28;;;;;;;93.15;42.90;;;;;;;;;;5050571;27;96781;-76
2022/03/25 04:42:56;;;;;;;95.40;43.90;;;;;;;;;;5049576;27;97428;-76
2022/03/25 04:45:24;;;;;;;94.05;43.03;;;;;;;;;;5050089;27;95484;-76
2022/03/25 04:47:51;;;;;;;92.65;41.65;;;;;;;;;;5048352;27;96873;-76
2022/03/25 04:50:18;;;;;;;90.53;41.60;;;;;;;;;;5052666;27;97360;-76
2022/03/25 04:52:45;;;;;;;88.15;40.58;;;;;;;;;;5073907;27;95454;-76
2022/03/25 04:55:15;;;;;;;82.60;39.83;;;;;;;;;;5069898;27;98235;-76
2022/03/25 04:57:42;;;;;;;88.25;41.15;;;;;;;;;;5052102;27;95260;-76
2022/03/25 05:00:09;;;;;;;86.32;40.28;;;;;;;;;;5050053;27;97246;-76
2022/03/25 05:02:35;;;;;;;83.00;39.85;;;;;;;;;;5049329;27;97275;-76
2022/03/25 05:05:02;;;;;;;84.93;40.63;;;;;;;;;;5048987;27;95277;-76
2022/03/25 05:07:28;;;;;;;85.68;39.85;;;;;;;;;;5050084;27;96806;-76
2022/03/25 05:09:59;;;;;;;87.22;42.35;;;;;;;;;;5048780;27;98153;-76
2022/03/25 05:12:25;;;;;;;85.20;41.10;;;;;;;;;;5029408;27;95690;-77
2022/03/25 05:14:52;;;;;;;84.45;40.08;;;;;;;;;;5032244;28;96931;-76
2022/03/25 05:17:18;;;;;;;82.57;39.53;;;;;;;;;;5028815;28;95211;-76
2022/03/25 05:19:45;;;;;;;88.50;41.83;;;;;;;;;;5029337;27;99603;-76
2022/03/25 05:22:11;;;;;;;85.25;39.83;;;;;;;;;;5046461;27;97283;-76
2022/03/25 05:24:37;;;;;;;78.05;39.15;;;;;;;;;;5048686;27;95409;-76
2022/03/25 05:27:04;;;;;;;88.95;40.22;;;;;;;;;;5049415;27;96660;-76
2022/03/25 05:29:30;;;;;;;89.57;40.60;;;;;;;;;;5049202;27;95965;-76
2022/03/25 05:31:57;;;;;;;90.43;40.75;;;;;;;;;;5048964;27;95355;-76
2022/03/25 18:11:09;;;;;;;41.63;20.58;;;;;;;;;;5026088;27;96703;-74
2022/03/25 18:13:35;;;;;;;41.67;21.48;;;;;;;;;;5024037;28;96311;-75
2022/03/25 18:16:02;;;;;;;45.30;21.98;;;;;;;;;;5024593;28;95378;-73
2022/03/25 18:18:29;;;;;;;44.05;21.63;;;;;;;;;;5022401;28;96729;-74
2022/03/25 18:20:56;;;;;;;46.90;22.02;;;;;;;;;;5022220;28;97408;-75
2022/03/25 18:23:25;;;;;;;42.40;21.85;;;;;;;;;;5023070;27;95472;-75
2022/03/25 18:25:52;;;;;;;46.65;21.35;;;;;;;;;;5022212;28;96823;-74
2022/03/25 18:28:18;;;;;;;48.03;22.48;;;;;;;;;;5023499;28;97404;-74
2022/03/25 18:30:45;;;;;;;43.42;21.88;;;;;;;;;;5025328;28;95443;-74
2022/03/25 18:33:12;;;;;;;46.80;21.67;;;;;;;;;;5022203;27;96214;-74
2022/03/25 18:35:39;;;;;;;43.97;21.88;;;;;;;;;;5016150;28;95507;-75
2022/03/25 18:38:06;;;;;;;54.38;22.38;;;;;;;;;;5003267;28;96824;-74
2022/03/25 18:40:33;;;;;;;47.38;22.25;;;;;;;;;;5020948;28;97229;-74
2022/03/25 18:43:02;;;;;;;40.50;21.98;;;;;;;;;;5023087;28;95423;-75
2022/03/25 18:45:29;;;;;;;44.17;21.67;;;;;;;;;;5021246;28;96132;-74
2022/03/25 18:47:55;;;;;;;40.05;22.73;;;;;;;;;;5022391;28;97405;-75
2022/03/25 18:50:24;;;;;;;41.03;21.77;;;;;;;;;;5022377;28;95704;-74
2022/03/25 18:52:52;;;;;;;43.55;22.73;;;;;;;;;;5025628;28;96709;-75
2022/03/25 18:55:20;;;;;;;49.30;23.02;;;;;;;;;;5022040;28;95679;-75
2022/03/25 18:57:46;;;;;;;48.92;22.40;;;;;;;;;;5018696;27;96765;-75
2022/03/25 19:00:13;;;;;;;41.20;21.95;;;;;;;;;;5018234;28;97298;-75
2022/03/25 19:02:39;;;;;;;40.28;22.42;;;;;;;;;;5019355;28;96338;-75
2022/03/25 19:05:06;;;;;;;44.97;22.55;;;;;;;;;;5021784;27;96889;-74
2022/03/25 19:07:32;;;;;;;43.33;22.35;;;;;;;;;;5019920;28;97261;-75
2022/03/25 19:09:58;;;;;;;42.30;21.58;;;;;;;;;;5022778;28;95405;-75
2022/03/25 19:12:25;;;;;;;39.63;21.33;;;;;;;;;;5022462;27;96909;-75
2022/03/25 19:14:51;;;;;;;45.90;22.55;;;;;;;;;;5025698;28;97303;-75
2022/03/25 19:17:18;;;;;;;41.05;22.38;;;;;;;;;;5023249;27;96901;-75
2022/03/25 19:19:48;;;;;;;40.00;22.13;;;;;;;;;;5022612;27;97584;-75
2022/03/25 19:22:15;;;;;;;50.42;23.65;;;;;;;;;;5010367;28;95293;-75
2022/03/25 19:24:41;;;;;;;41.75;22.70;;;;;;;;;;5009872;28;96789;-75
2022/03/25 19:27:08;;;;;;;46.05;23.00;;;;;;;;;;5008919;28;96412;-74
2022/03/25 19:29:34;;;;;;;47.05;22.13;;;;;;;;;;5009082;28;96336;-74
2022/03/25 19:32:00;;;;;;;37.65;22.77;;;;;;;;;;5009060;28;96838;-74
2022/03/25 19:34:28;;;;;;;43.40;23.83;;;;;;;;;;5006585;28;97316;-74
2022/03/25 19:36:54;;;;;;;37.90;23.02;;;;;;;;;;5012279;28;95423;-75
2022/03/25 19:39:21;;;;;;;40.95;23.13;;;;;;;;;;5004137;28;97415;-75
2022/03/25 19:41:47;;;;;;;44.95;22.83;;;;;;;;;;5009122;28;95965;-75
2022/03/25 19:44:14;;;;;;;39.80;22.70;;;;;;;;;;4992654;28;96968;-74
2022/03/25 19:46:40;;;;;;;54.63;24.25;;;;;;;;;;4990246;28;97306;-74
2022/03/25 19:49:07;;;;;;;47.85;22.48;;;;;;;;;;5008584;28;95581;-75
2022/03/25 19:51:34;;;;;;;43.85;23.88;;;;;;;;;;5008348;28;96816;-74
2022/03/25 19:54:04;;;;;;;44.15;23.05;;;;;;;;;;5006975;28;97394;-75
2022/03/25 19:56:31;;;;;;;49.85;23.50;;;;;;;;;;5004310;28;96044;-75
2022/03/25 19:58:58;;;;;;;49.65;24.02;;;;;;;;;;5007589;28;96889;-75
2022/03/25 20:01:25;;;;;;;43.22;21.92;;;;;;;;;;5009383;28;95347;-75
2022/03/25 20:03:54;;;;;;;39.63;21.73;;;;;;;;;;5008108;28;96607;-75
2022/03/25 20:06:21;;;;;;;43.53;22.00;;;;;;;;;;5006881;28;97259;-75
2022/03/25 20:08:47;;;;;;;43.13;20.38;;;;;;;;;;4998385;28;96088;-74
2022/03/25 20:11:14;;;;;;;48.10;22.48;;;;;;;;;;5008457;28;96817;-75
2022/03/25 20:13:42;;;;;;;44.22;21.52;;;;;;;;;;5007880;28;96310;-75
2022/03/25 20:16:11;;;;;;;43.80;21.88;;;;;;;;;;5007297;28;95491;-75
2022/03/25 20:18:37;;;;;;;42.00;21.02;;;;;;;;;;5010024;28;96594;-75
2022/03/25 20:21:04;;;;;;;37.97;20.42;;;;;;;;;;5003750;28;95969;-71
2022/03/25 20:23:30;;;;;;;50.95;21.58;;;;;;;;;;5024363;28;95565;-75
2022/03/25 20:25:57;;;;;;;46.53;21.73;;;;;;;;;;5010734;28;96482;-76
2022/03/25 20:28:23;;;;;;;40.65;20.55;;;;;;;;;;5010282;28;95392;-74
2022/03/25 20:30:49;;;;;;;42.03;20.95;;;;;;;;;;5009393;28;96957;-74
2022/03/25 20:33:16;;;;;;;44.08;20.38;;;;;;;;;;5008110;28;97451;-75
2022/03/25 20:35:43;;;;;;;42.70;21.92;;;;;;;;;;5009783;28;95359;-74
2022/03/25 20:38:10;;;;;;;43.28;22.33;;;;;;;;;;5009193;28;97020;-75
2022/03/25 20:40:39;;;;;;;47.03;21.48;;;;;;;;;;5012553;28;97259;-75
2022/03/25 20:43:06;;;;;;;46.95;21.83;;;;;;;;;;5009726;28;97048;-75
2022/03/25 20:45:32;;;;;;;37.95;20.98;;;;;;;;;;5008905;28;97073;-74
2022/03/25 20:47:58;;;;;;;47.88;22.60;;;;;;;;;;5009603;28;95384;-75
2022/03/25 20:50:25;;;;;;;46.28;22.20;;;;;;;;;;5009468;28;96875;-75
2022/03/25 20:52:51;;;;;;;47.72;22.65;;;;;;;;;;4987625;28;96419;-74
2022/03/25 20:55:18;;;;;;;44.58;22.02;;;;;;;;;;4989510;28;95469;-74
2022/03/25 20:57:44;;;;;;;49.40;22.50;;;;;;;;;;4988523;28;97253;-74
2022/03/25 21:00:11;;;;;;;42.38;21.13;;;;;;;;;;5005555;28;97330;-74
2022/03/25 21:02:37;;;;;;;43.25;20.90;;;;;;;;;;5012123;28;96043;-74
2022/03/25 21:05:04;;;;;;;37.80;21.33;;;;;;;;;;5009013;28;97403;-74
2022/03/25 21:07:31;;;;;;;42.85;22.23;;;;;;;;;;5009255;28;95248;-73
2022/03/25 21:09:57;;;;;;;44.50;21.83;;;;;;;;;;5008980;28;97166;-74
2022/03/25 21:12:24;;;;;;;38.85;20.45;;;;;;;;;;5008675;28;97313;-74
2022/03/25 21:14:50;;;;;;;44.63;21.33;;;;;;;;;;5007917;28;95497;-74
2022/03/25 21:17:16;;;;;;;44.42;21.13;;;;;;;;;;5009059;28;96924;-74
2022/03/25 21:19:43;;;;;;;52.85;23.38;;;;;;;;;;5008825;28;97239;-74
2022/03/25 21:22:10;;;;;;;48.65;22.15;;;;;;;;;;5008717;28;95392;-74
2022/03/25 21:24:37;;;;;;;46.78;22.55;;;;;;;;;;5012174;28;96758;-73
2022/03/25 21:27:04;;;;;;;50.30;22.15;;;;;;;;;;5008670;28;95832;-74
2022/03/25 21:29:30;;;;;;;45.53;21.55;;;;;;;;;;5008767;28;95874;-74
2022/03/25 21:31:57;;;;;;;48.13;22.52;;;;;;;;;;5008429;28;97316;-74
2022/03/25 21:34:23;;;;;;;55.72;24.15;;;;;;;;;;5008183;28;95153;-75
2022/03/25 21:36:50;;;;;;;45.38;22.92;;;;;;;;;;5008793;28;95864;-74
2022/03/25 21:39:16;;;;;;;48.13;22.20;;;;;;;;;;5006906;28;97269;-75
2022/03/25 21:41:43;;;;;;;52.80;23.02;;;;;;;;;;5008145;28;95367;-75
2022/03/25 21:44:09;;;;;;;45.83;22.38;;;;;;;;;;5008597;28;96769;-74
2022/03/25 21:46:35;;;;;;;49.15;23.15;;;;;;;;;;5011968;28;97484;-74
2022/03/25 21:49:02;;;;;;;50.38;23.02;;;;;;;;;;5008450;28;96734;-75
2022/03/25 21:51:29;;;;;;;43.13;22.30;;;;;;;;;;5008356;28;97355;-75
2022/03/25 21:53:55;;;;;;;54.95;23.60;;;;;;;;;;5008800;28;95387;-76
2022/03/25 21:56:21;;;;;;;51.50;23.95;;;;;;;;;;5008605;28;97232;-75
2022/03/25 21:58:48;;;;;;;50.30;24.05;;;;;;;;;;5008757;28;96672;-74
2022/03/25 22:01:14;;;;;;;48.00;23.80;;;;;;;;;;5008668;28;95676;-75
2022/03/25 22:03:41;;;;;;;48.70;22.95;;;;;;;;;;5007715;28;96266;-74
2022/03/25 22:06:07;;;;;;;53.78;23.88;;;;;;;;;;5008331;28;97750;-76
2022/03/25 22:08:34;;;;;;;45.40;23.92;;;;;;;;;;5011798;28;95359;-75
2022/03/25 22:11:02;;;;;;;52.10;24.75;;;;;;;;;;5007807;28;97719;-75
2022/03/25 22:13:28;;;;;;;52.33;23.65;;;;;;;;;;5007868;28;95896;-75
2022/03/25 22:15:55;;;;;;;53.13;24.35;;;;;;;;;;5007729;28;95815;-75
2022/03/25 22:18:21;;;;;;;46.38;22.73;;;;;;;;;;5007834;28;97370;-75
2022/03/25 22:20:48;;;;;;;49.92;23.27;;;;;;;;;;5008664;28;96646;-75
2022/03/25 22:23:14;;;;;;;50.97;24.38;;;;;;;;;;5007310;28;96836;-75
2022/03/25 22:25:45;;;;;;;45.58;23.25;;;;;;;;;;5006459;28;96430;-75
2022/03/25 22:28:12;;;;;;;44.15;23.52;;;;;;;;;;5011426;28;95431;-74
2022/03/25 22:30:38;;;;;;;57.90;24.63;;;;;;;;;;5007746;28;97378;-74
2022/03/25 22:33:04;;;;;;;85.55;24.80;;;;;;;;;;5007509;28;96039;-75
2022/03/25 22:35:31;;;;;;;49.22;24.02;;;;;;;;;;5008136;28;96994;-74
2022/03/25 22:37:58;;;;;;;56.03;24.73;;;;;;;;;;5006451;28;97582;-75
2022/03/25 22:40:25;;;;;;;55.55;26.10;;;;;;;;;;5008263;28;95368;-75
2022/03/25 22:42:51;;;;;;;52.20;24.88;;;;;;;;;;5007715;28;97428;-74
2022/03/25 22:45:18;;;;;;;55.45;23.77;;;;;;;;;;5007348;28;97395;-74
2022/03/25 22:47:44;;;;;;;62.35;26.33;;;;;;;;;;5008028;28;95641;-74
2022/03/25 22:50:10;;;;;;;56.65;23.88;;;;;;;;;;5010748;28;96957;-74
2022/03/25 22:52:37;;;;;;;58.00;23.55;;;;;;;;;;5007032;28;95469;-74
2022/03/25 22:55:04;;;;;;;50.70;23.95;;;;;;;;;;5007456;28;96722;-75
2022/03/25 22:57:30;;;;;;;48.03;24.25;;;;;;;;;;5016168;28;97291;-75
2022/03/25 22:59:57;;;;;;;61.03;25.60;;;;;;;;;;5011359;28;95360;-74
2022/03/25 23:02:23;;;;;;;54.70;26.40;;;;;;;;;;5011697;28;97160;-74
2022/03/25 23:04:50;;;;;;;56.53;26.83;;;;;;;;;;5010931;28;97334;-75
2022/03/25 23:07:16;;;;;;;48.88;25.70;;;;;;;;;;5010638;28;95569;-74
2022/03/25 23:09:42;;;;;;;51.40;24.77;;;;;;;;;;5009517;28;95832;-74
2022/03/25 23:12:09;;;;;;;48.75;25.83;;;;;;;;;;5013306;28;97481;-74
2022/03/25 23:14:36;;;;;;;58.95;27.45;;;;;;;;;;5011035;28;96869;-74
2022/03/25 23:17:02;;;;;;;62.90;25.30;;;;;;;;;;5009886;28;97482;-75
2022/03/25 23:19:29;;;;;;;51.72;25.73;;;;;;;;;;5010677;28;95512;-74
2022/03/25 23:21:55;;;;;;;50.25;24.73;;;;;;;;;;5010877;28;96882;-74
2022/03/25 23:24:21;;;;;;;51.85;25.13;;;;;;;;;;5010374;28;97358;-74
2022/03/25 23:26:48;;;;;;;49.45;25.65;;;;;;;;;;5010487;28;96262;-74
2022/03/25 23:29:14;;;;;;;52.78;24.23;;;;;;;;;;5010573;28;95982;-76
2022/03/25 23:31:41;;;;;;;50.47;24.48;;;;;;;;;;5010362;28;97460;-76
2022/03/25 23:34:07;;;;;;;49.90;24.48;;;;;;;;;;5013590;28;95557;-75
2022/03/25 23:36:34;;;;;;;52.00;26.00;;;;;;;;;;5010685;28;97321;-76
2022/03/25 23:39:00;;;;;;;54.60;25.77;;;;;;;;;;5010438;28;96187;-76
2022/03/25 23:41:27;;;;;;;53.53;25.35;;;;;;;;;;5010157;28;97025;-75
2022/03/25 23:43:53;;;;;;;56.42;24.75;;;;;;;;;;5010817;28;97467;-75
2022/03/25 23:46:20;;;;;;;62.05;25.67;;;;;;;;;;5010287;28;95363;-75
2022/03/25 23:48:54;;;;;;;58.53;26.83;;;;;;;;;;5010228;28;96794;-74
2022/03/25 23:51:21;;;;;;;79.25;28.30;;;;;;;;;;5009909;28;97364;-75
2022/03/25 23:53:47;;;;;;;57.83;26.67;;;;;;;;;;5009404;28;95433;-75
2022/03/25 23:56:14;;;;;;;50.47;24.15;;;;;;;;;;5012809;28;97229;-74
2022/03/25 23:58:40;;;;;;;56.90;25.38;;;;;;;;;;5010505;28;95379;-74
